Waycross, Georgia
Current Conditions -  °F | °C
As of 12:15 AM on Tuesday 23 Dec 2014 (Local Time) from KAYS Reporting Station
Haze Haze  
Wind Chill: 58°   Ceiling: 200
Heat Index: 58°   Visibility: 2.5mi
Dew Point: 58°   Wind: 5mph
Humidity: 100%   Direction: 100°E
Pressure: 29.93"   Gusts: NA
Location:  31.21°N, 82.36°W
Report Text: KAYS 230515Z AUTO 10004KT 2 1/2SM BR OVC002 15/15 A2993 RMK AO2 T01450145
Loading
Personal Weather Stations






























Interactive Weather Map New forecast layout! Learn more

10-Day Weather Forecast

Advertisements
Track Severe Weather on mobile